sensor_id;sensor_type;location;lat;lon;timestamp;pressure;altitude;pressure_sealevel;temperature;humidity
40872;BME280;26591;43.264;26.940;2022-08-19T00:01:16;98541.69;;;27.37;51.81
40872;BME280;26591;43.264;26.940;2022-08-19T00:03:41;98545.50;;;27.36;52.06
40872;BME280;26591;43.264;26.940;2022-08-19T00:06:07;98551.81;;;27.31;51.75
40872;BME280;26591;43.264;26.940;2022-08-19T00:08:32;98552.50;;;27.47;51.74
40872;BME280;26591;43.264;26.940;2022-08-19T00:10:58;98554.34;;;27.52;51.43
40872;BME280;26591;43.264;26.940;2022-08-19T00:13:23;98556.75;;;27.53;51.88
40872;BME280;26591;43.264;26.940;2022-08-19T00:15:49;98561.38;;;27.53;51.86
40872;BME280;26591;43.264;26.940;2022-08-19T00:18:14;98560.03;;;27.50;51.52
40872;BME280;26591;43.264;26.940;2022-08-19T00:20:40;98564.28;;;27.62;51.45
40872;BME280;26591;43.264;26.940;2022-08-19T00:23:06;98564.84;;;27.59;51.56
40872;BME280;26591;43.264;26.940;2022-08-19T00:25:32;98568.47;;;27.73;51.15
40872;BME280;26591;43.264;26.940;2022-08-19T00:27:59;98566.69;;;27.63;51.24
40872;BME280;26591;43.264;26.940;2022-08-19T00:30:25;98570.25;;;27.64;51.09
40872;BME280;26591;43.264;26.940;2022-08-19T00:32:52;98574.78;;;27.44;52.18
40872;BME280;26591;43.264;26.940;2022-08-19T00:35:20;98575.03;;;27.48;51.84
40872;BME280;26591;43.264;26.940;2022-08-19T00:37:48;98577.31;;;27.35;51.95
40872;BME280;26591;43.264;26.940;2022-08-19T00:40:14;98572.00;;;27.25;52.21
40872;BME280;26591;43.264;26.940;2022-08-19T00:42:41;98576.41;;;27.16;52.93
40872;BME280;26591;43.264;26.940;2022-08-19T00:45:19;98571.31;;;27.09;52.82
40872;BME280;26591;43.264;26.940;2022-08-19T00:47:45;98579.31;;;27.24;52.20
40872;BME280;26591;43.264;26.940;2022-08-19T00:50:13;98570.09;;;27.25;52.75
40872;BME280;26591;43.264;26.940;2022-08-19T00:52:42;98567.72;;;27.19;52.36
40872;BME280;26591;43.264;26.940;2022-08-19T00:55:14;98569.84;;;26.92;52.85
40872;BME280;26591;43.264;26.940;2022-08-19T00:57:45;98569.16;;;26.82;53.40
40872;BME280;26591;43.264;26.940;2022-08-19T01:00:15;98564.84;;;26.70;53.85
40872;BME280;26591;43.264;26.940;2022-08-19T01:02:42;98569.69;;;26.84;53.48
40872;BME280;26591;43.264;26.940;2022-08-19T01:05:12;98568.09;;;27.07;53.43
40872;BME280;26591;43.264;26.940;2022-08-19T01:07:41;98563.66;;;27.16;53.59
40872;BME280;26591;43.264;26.940;2022-08-19T01:10:11;98570.09;;;27.25;52.95
40872;BME280;26591;43.264;26.940;2022-08-19T01:12:38;98570.66;;;27.22;53.81
40872;BME280;26591;43.264;26.940;2022-08-19T01:15:09;98564.66;;;27.25;53.98
40872;BME280;26591;43.264;26.940;2022-08-19T01:17:38;98562.47;;;27.27;54.11
40872;BME280;26591;43.264;26.940;2022-08-19T01:20:06;98569.16;;;27.35;53.81
40872;BME280;26591;43.264;26.940;2022-08-19T01:22:43;98560.72;;;27.37;53.83
40872;BME280;26591;43.264;26.940;2022-08-19T01:25:09;98566.66;;;27.39;54.20
40872;BME280;26591;43.264;26.940;2022-08-19T01:27:48;98567.19;;;27.46;53.03
40872;BME280;26591;43.264;26.940;2022-08-19T01:30:18;98564.78;;;27.39;53.85
40872;BME280;26591;43.264;26.940;2022-08-19T01:32:45;98562.84;;;27.40;53.42
40872;BME280;26591;43.264;26.940;2022-08-19T01:35:14;98571.50;;;27.47;53.24
40872;BME280;26591;43.264;26.940;2022-08-19T01:37:55;98570.13;;;27.50;53.27
40872;BME280;26591;43.264;26.940;2022-08-19T01:40:24;98562.50;;;27.52;52.87
40872;BME280;26591;43.264;26.940;2022-08-19T01:42:50;98555.06;;;27.33;54.48
40872;BME280;26591;43.264;26.940;2022-08-19T01:45:17;98564.81;;;27.10;55.16
40872;BME280;26591;43.264;26.940;2022-08-19T01:47:43;98569.47;;;27.04;55.57
40872;BME280;26591;43.264;26.940;2022-08-19T01:50:10;98570.19;;;27.15;55.80
40872;BME280;26591;43.264;26.940;2022-08-19T01:52:37;98569.91;;;27.17;55.27
40872;BME280;26591;43.264;26.940;2022-08-19T01:55:05;98566.25;;;27.26;55.13
40872;BME280;26591;43.264;26.940;2022-08-19T01:57:31;98557.25;;;27.31;55.10
40872;BME280;26591;43.264;26.940;2022-08-19T01:59:58;98556.69;;;27.34;55.19
40872;BME280;26591;43.264;26.940;2022-08-19T02:02:27;98558.06;;;27.32;55.75
40872;BME280;26591;43.264;26.940;2022-08-19T02:04:52;98556.16;;;27.32;55.45
40872;BME280;26591;43.264;26.940;2022-08-19T02:07:21;98556.78;;;27.24;55.93
40872;BME280;26591;43.264;26.940;2022-08-19T02:09:47;98549.97;;;27.26;55.99
40872;BME280;26591;43.264;26.940;2022-08-19T02:12:14;98558.69;;;27.23;55.59
40872;BME280;26591;43.264;26.940;2022-08-19T02:14:40;98546.47;;;26.96;56.66
40872;BME280;26591;43.264;26.940;2022-08-19T02:17:05;98554.53;;;26.72;57.27
40872;BME280;26591;43.264;26.940;2022-08-19T02:19:31;98547.44;;;26.47;58.00
40872;BME280;26591;43.264;26.940;2022-08-19T02:21:58;98548.47;;;26.51;57.94
40872;BME280;26591;43.264;26.940;2022-08-19T02:24:25;98555.09;;;26.69;57.46
40872;BME280;26591;43.264;26.940;2022-08-19T02:26:52;98553.44;;;26.73;57.79
40872;BME280;26591;43.264;26.940;2022-08-19T02:29:18;98561.81;;;26.82;57.26
40872;BME280;26591;43.264;26.940;2022-08-19T02:31:43;98565.84;;;26.85;57.24
40872;BME280;26591;43.264;26.940;2022-08-19T02:34:09;98557.44;;;26.86;57.34
40872;BME280;26591;43.264;26.940;2022-08-19T02:36:34;98563.97;;;26.85;57.05
40872;BME280;26591;43.264;26.940;2022-08-19T02:39:02;98557.44;;;26.86;57.21
40872;BME280;26591;43.264;26.940;2022-08-19T02:41:30;98557.97;;;26.88;57.43
40872;BME280;26591;43.264;26.940;2022-08-19T02:43:57;98557.44;;;26.86;57.45
40872;BME280;26591;43.264;26.940;2022-08-19T02:46:26;98559.63;;;26.84;57.36
40872;BME280;26591;43.264;26.940;2022-08-19T02:48:54;98552.38;;;26.69;58.45
40872;BME280;26591;43.264;26.940;2022-08-19T02:51:27;98559.38;;;26.46;58.42
40872;BME280;26591;43.264;26.940;2022-08-19T02:53:54;98564.31;;;26.39;58.44
40872;BME280;26591;43.264;26.940;2022-08-19T02:56:22;98561.97;;;26.22;58.78
40872;BME280;26591;43.264;26.940;2022-08-19T02:58:48;98567.34;;;26.32;58.47
40872;BME280;26591;43.264;26.940;2022-08-19T03:01:26;98568.66;;;26.34;58.64
40872;BME280;26591;43.264;26.940;2022-08-19T03:03:53;98573.81;;;26.36;58.64
40872;BME280;26591;43.264;26.940;2022-08-19T03:06:19;98572.16;;;26.40;58.49
40872;BME280;26591;43.264;26.940;2022-08-19T03:08:47;98570.34;;;26.25;58.65
40872;BME280;26591;43.264;26.940;2022-08-19T03:11:28;98572.97;;;26.41;58.29
40872;BME280;26591;43.264;26.940;2022-08-19T03:13:57;98572.53;;;26.23;58.36
40872;BME280;26591;43.264;26.940;2022-08-19T03:16:25;98572.81;;;26.22;58.62
40872;BME280;26591;43.264;26.940;2022-08-19T03:18:53;98572.06;;;26.11;59.32
40872;BME280;26591;43.264;26.940;2022-08-19T03:21:23;98576.94;;;26.09;59.95
40872;BME280;26591;43.264;26.940;2022-08-19T03:23:49;98580.69;;;26.18;59.24
40872;BME280;26591;43.264;26.940;2022-08-19T03:26:15;98574.09;;;26.34;59.59
40872;BME280;26591;43.264;26.940;2022-08-19T03:28:42;98582.97;;;26.45;58.82
40872;BME280;26591;43.264;26.940;2022-08-19T03:31:12;98574.94;;;26.30;59.32
40872;BME280;26591;43.264;26.940;2022-08-19T03:33:39;98583.00;;;26.40;59.29
40872;BME280;26591;43.264;26.940;2022-08-19T03:36:26;98590.22;;;26.55;58.76
40872;BME280;26591;43.264;26.940;2022-08-19T03:38:57;98588.97;;;26.82;58.21
40872;BME280;26591;43.264;26.940;2022-08-19T03:41:26;98586.75;;;26.89;58.16
40872;BME280;26591;43.264;26.940;2022-08-19T03:43:53;98586.19;;;27.17;57.21
40872;BME280;26591;43.264;26.940;2022-08-19T03:46:25;98587.47;;;27.54;56.76
40872;BME280;26591;43.264;26.940;2022-08-19T03:48:54;98592.28;;;27.81;55.77
40872;BME280;26591;43.264;26.940;2022-08-19T03:51:31;98592.81;;;27.83;56.37
40872;BME280;26591;43.264;26.940;2022-08-19T03:54:00;98591.47;;;28.05;56.02
40872;BME280;26591;43.264;26.940;2022-08-19T03:56:27;98602.84;;;28.07;56.37
40872;BME280;26591;43.264;26.940;2022-08-19T03:58:57;98598.94;;;27.94;56.16
40872;BME280;26591;43.264;26.940;2022-08-19T04:01:24;98600.75;;;27.80;57.27
40872;BME280;26591;43.264;26.940;2022-08-19T04:03:55;98604.91;;;27.72;56.45
40872;BME280;26591;43.264;26.940;2022-08-19T04:06:30;98603.78;;;27.78;56.04
40872;BME280;26591;43.264;26.940;2022-08-19T04:08:58;98614.38;;;27.75;56.50
40872;BME280;26591;43.264;26.940;2022-08-19T04:11:30;98621.56;;;27.90;56.60
40872;BME280;26591;43.264;26.940;2022-08-19T04:13:56;98611.41;;;28.20;55.55
40872;BME280;26591;43.264;26.940;2022-08-19T04:16:26;98613.34;;;28.71;54.08
40872;BME280;26591;43.264;26.940;2022-08-19T04:18:56;98623.91;;;28.78;54.53
40872;BME280;26591;43.264;26.940;2022-08-19T04:21:26;98614.44;;;29.22;52.86
40872;BME280;26591;43.264;26.940;2022-08-19T04:23:53;98622.88;;;29.68;51.92
40872;BME280;26591;43.264;26.940;2022-08-19T04:26:24;98629.44;;;29.67;50.97
40872;BME280;26591;43.264;26.940;2022-08-19T04:28:51;98622.88;;;29.96;50.52
40872;BME280;26591;43.264;26.940;2022-08-19T04:31:22;98627.09;;;30.53;50.03
40872;BME280;26591;43.264;26.940;2022-08-19T04:33:58;98626.19;;;30.80;49.40
40872;BME280;26591;43.264;26.940;2022-08-19T04:36:27;98631.16;;;31.24;48.46
40872;BME280;26591;43.264;26.940;2022-08-19T04:38:58;98631.88;;;31.78;46.94
40872;BME280;26591;43.264;26.940;2022-08-19T04:41:24;98646.28;;;32.19;45.72
40872;BME280;26591;43.264;26.940;2022-08-19T04:44:09;98636.66;;;32.31;45.31
40872;BME280;26591;43.264;26.940;2022-08-19T04:46:34;98628.78;;;32.29;46.23
40872;BME280;26591;43.264;26.940;2022-08-19T04:49:02;98643.13;;;32.44;45.31
40872;BME280;26591;43.264;26.940;2022-08-19T04:51:28;98648.44;;;32.40;45.29
40872;BME280;26591;43.264;26.940;2022-08-19T04:53:56;98641.81;;;32.76;44.81
40872;BME280;26591;43.264;26.940;2022-08-19T04:56:22;98641.34;;;32.83;44.86
40872;BME280;26591;43.264;26.940;2022-08-19T04:58:51;98644.09;;;32.83;44.90
40872;BME280;26591;43.264;26.940;2022-08-19T05:01:19;98646.84;;;32.83;44.72
40872;BME280;26591;43.264;26.940;2022-08-19T05:03:45;98643.78;;;32.84;45.05
40872;BME280;26591;43.264;26.940;2022-08-19T05:06:13;98650.59;;;33.35;44.18
40872;BME280;26591;43.264;26.940;2022-08-19T05:08:40;98652.34;;;33.48;44.23
40872;BME280;26591;43.264;26.940;2022-08-19T05:11:14;98652.94;;;34.22;42.35
40872;BME280;26591;43.264;26.940;2022-08-19T05:13:40;98658.63;;;34.17;43.05
40872;BME280;26591;43.264;26.940;2022-08-19T05:16:06;98655.25;;;34.42;42.37
40872;BME280;26591;43.264;26.940;2022-08-19T05:18:31;98655.56;;;34.40;41.95
40872;BME280;26591;43.264;26.940;2022-08-19T05:21:17;98656.31;;;34.71;41.39
40872;BME280;26591;43.264;26.940;2022-08-19T05:24:03;98656.19;;;34.67;41.98
40872;BME280;26591;43.264;26.940;2022-08-19T05:26:38;98662.19;;;34.81;40.99
40872;BME280;26591;43.264;26.940;2022-08-19T05:29:04;98653.63;;;35.17;40.39
40872;BME280;26591;43.264;26.940;2022-08-19T05:31:30;98652.31;;;35.60;39.88
40872;BME280;26591;43.264;26.940;2022-08-19T05:33:56;98654.41;;;35.75;39.58
40872;BME280;26591;43.264;26.940;2022-08-19T05:36:28;98655.09;;;35.97;38.73
40872;BME280;26591;43.264;26.940;2022-08-19T05:38:54;98659.81;;;36.09;39.30
40872;BME280;26591;43.264;26.940;2022-08-19T05:41:21;98659.19;;;36.28;39.24
40872;BME280;26591;43.264;26.940;2022-08-19T05:44:00;98655.47;;;36.49;38.20
40872;BME280;26591;43.264;26.940;2022-08-19T05:46:27;98651.56;;;36.50;38.10
40872;BME280;26591;43.264;26.940;2022-08-19T05:48:52;98651.72;;;36.70;37.07
40872;BME280;26591;43.264;26.940;2022-08-19T05:51:21;98650.72;;;36.90;37.39
40872;BME280;26591;43.264;26.940;2022-08-19T05:53:47;98648.31;;;36.89;36.35
40872;BME280;26591;43.264;26.940;2022-08-19T05:56:15;98644.84;;;36.63;35.91
40872;BME280;26591;43.264;26.940;2022-08-19T05:58:42;98632.25;;;36.22;36.68
40872;BME280;26591;43.264;26.940;2022-08-19T06:01:15;98636.72;;;36.67;35.71
40872;BME280;26591;43.264;26.940;2022-08-19T06:03:42;98645.69;;;36.64;35.48
40872;BME280;26591;43.264;26.940;2022-08-19T06:06:10;98641.47;;;36.42;36.04
40872;BME280;26591;43.264;26.940;2022-08-19T06:08:36;98634.91;;;35.81;36.49
40872;BME280;26591;43.264;26.940;2022-08-19T06:11:14;98639.63;;;36.05;36.53
40872;BME280;26591;43.264;26.940;2022-08-19T06:13:40;98635.59;;;35.65;36.65
40872;BME280;26591;43.264;26.940;2022-08-19T06:16:06;98643.94;;;35.81;36.98
40872;BME280;26591;43.264;26.940;2022-08-19T06:18:31;98631.91;;;35.61;36.73
40872;BME280;26591;43.264;26.940;2022-08-19T06:20:58;98635.34;;;36.08;36.32
40872;BME280;26591;43.264;26.940;2022-08-19T06:23:24;98637.63;;;36.18;36.15
40872;BME280;26591;43.264;26.940;2022-08-19T06:25:49;98645.44;;;36.03;36.05
40872;BME280;26591;43.264;26.940;2022-08-19T06:28:15;98633.78;;;35.57;36.79
40872;BME280;26591;43.264;26.940;2022-08-19T06:30:40;98642.03;;;35.82;36.44
40872;BME280;26591;43.264;26.940;2022-08-19T06:33:06;98641.91;;;35.78;36.92
40872;BME280;26591;43.264;26.940;2022-08-19T06:35:32;98643.38;;;35.75;36.67
40872;BME280;26591;43.264;26.940;2022-08-19T06:37:57;98637.47;;;35.15;37.70
40872;BME280;26591;43.264;26.940;2022-08-19T06:40:24;98639.03;;;35.74;37.02
40872;BME280;26591;43.264;26.940;2022-08-19T06:42:52;98636.50;;;36.07;36.23
40872;BME280;26591;43.264;26.940;2022-08-19T06:45:18;98636.97;;;36.09;36.71
40872;BME280;26591;43.264;26.940;2022-08-19T06:47:45;98627.34;;;35.78;37.38
40872;BME280;26591;43.264;26.940;2022-08-19T06:50:13;98629.28;;;36.02;36.75
40872;BME280;26591;43.264;26.940;2022-08-19T06:52:39;98628.38;;;35.73;37.01
40872;BME280;26591;43.264;26.940;2022-08-19T06:55:06;98631.22;;;35.89;36.90
40872;BME280;26591;43.264;26.940;2022-08-19T06:57:31;98625.53;;;35.11;38.20
40872;BME280;26591;43.264;26.940;2022-08-19T06:59:58;98619.47;;;34.72;38.59
40872;BME280;26591;43.264;26.940;2022-08-19T07:02:25;98625.75;;;34.72;38.42
40872;BME280;26591;43.264;26.940;2022-08-19T07:04:52;98623.16;;;35.22;37.61
40872;BME280;26591;43.264;26.940;2022-08-19T07:07:18;98633.88;;;36.10;37.20
40872;BME280;26591;43.264;26.940;2022-08-19T07:09:45;98621.38;;;35.75;36.78
40872;BME280;26591;43.264;26.940;2022-08-19T07:12:12;98627.91;;;35.71;36.73
40872;BME280;26591;43.264;26.940;2022-08-19T07:14:40;98622.88;;;35.98;36.50
40872;BME280;26591;43.264;26.940;2022-08-19T07:17:10;98623.56;;;36.07;36.88
40872;BME280;26591;43.264;26.940;2022-08-19T07:19:36;98619.09;;;35.53;37.21
40872;BME280;26591;43.264;26.940;2022-08-19T07:22:05;98615.34;;;34.99;38.21
40872;BME280;26591;43.264;26.940;2022-08-19T07:24:32;98616.91;;;35.46;37.79
40872;BME280;26591;43.264;26.940;2022-08-19T07:27:00;98609.56;;;34.92;38.25
40872;BME280;26591;43.264;26.940;2022-08-19T07:29:29;98604.69;;;35.22;38.01
40872;BME280;26591;43.264;26.940;2022-08-19T07:31:56;98607.91;;;35.12;38.01
40872;BME280;26591;43.264;26.940;2022-08-19T07:34:24;98611.13;;;35.14;38.33
40872;BME280;26591;43.264;26.940;2022-08-19T07:36:51;98611.56;;;35.04;38.30
40872;BME280;26591;43.264;26.940;2022-08-19T07:39:29;98609.97;;;35.15;38.26
40872;BME280;26591;43.264;26.940;2022-08-19T07:41:56;98611.84;;;35.98;37.21
40872;BME280;26591;43.264;26.940;2022-08-19T07:44:23;98604.19;;;35.54;37.58
40872;BME280;26591;43.264;26.940;2022-08-19T07:46:52;98613.31;;;34.53;38.89
40872;BME280;26591;43.264;26.940;2022-08-19T07:49:20;98608.41;;;34.38;39.38
40872;BME280;26591;43.264;26.940;2022-08-19T07:52:02;98614.22;;;34.58;39.27
40872;BME280;26591;43.264;26.940;2022-08-19T07:54:31;98610.09;;;34.51;39.21
40872;BME280;26591;43.264;26.940;2022-08-19T07:56:59;98620.19;;;34.60;38.77
40872;BME280;26591;43.264;26.940;2022-08-19T07:59:25;98612.22;;;34.67;39.10
40872;BME280;26591;43.264;26.940;2022-08-19T08:01:50;98609.84;;;34.44;38.94
40872;BME280;26591;43.264;26.940;2022-08-19T08:04:18;98605.19;;;33.93;39.28
40872;BME280;26591;43.264;26.940;2022-08-19T08:07:03;98610.78;;;34.48;39.38
40872;BME280;26591;43.264;26.940;2022-08-19T08:09:48;98611.59;;;34.82;38.45
40872;BME280;26591;43.264;26.940;2022-08-19T08:12:21;98602.84;;;35.02;38.09
40872;BME280;26591;43.264;26.940;2022-08-19T08:14:52;98599.75;;;34.69;38.38
40872;BME280;26591;43.264;26.940;2022-08-19T08:17:21;98598.22;;;34.38;38.71
40872;BME280;26591;43.264;26.940;2022-08-19T08:19:46;98596.06;;;34.02;39.54
40872;BME280;26591;43.264;26.940;2022-08-19T08:22:15;98597.63;;;33.82;39.32
40872;BME280;26591;43.264;26.940;2022-08-19T08:25:11;98595.94;;;33.98;39.56
40872;BME280;26591;43.264;26.940;2022-08-19T08:27:42;98599.88;;;33.88;39.08
40872;BME280;26591;43.264;26.940;2022-08-19T08:30:19;98600.38;;;33.90;38.95
40872;BME280;26591;43.264;26.940;2022-08-19T08:32:45;98594.34;;;33.67;39.31
40872;BME280;26591;43.264;26.940;2022-08-19T08:35:15;98594.63;;;33.74;39.52
40872;BME280;26591;43.264;26.940;2022-08-19T08:37:42;98595.34;;;34.14;38.68
40872;BME280;26591;43.264;26.940;2022-08-19T08:40:29;98597.19;;;33.41;39.15
40872;BME280;26591;43.264;26.940;2022-08-19T08:43:06;98587.84;;;33.42;39.26
40872;BME280;26591;43.264;26.940;2022-08-19T08:45:41;98587.66;;;33.47;39.49
40872;BME280;26591;43.264;26.940;2022-08-19T08:50:59;98591.34;;;34.53;37.04
40872;BME280;26591;43.264;26.940;2022-08-19T08:53:26;98586.91;;;33.98;38.48
40872;BME280;26591;43.264;26.940;2022-08-19T08:55:53;98586.75;;;33.94;38.01
40872;BME280;26591;43.264;26.940;2022-08-19T08:58:28;98585.50;;;34.34;37.72
40872;BME280;26591;43.264;26.940;2022-08-19T09:00:56;98589.59;;;34.06;37.41
40872;BME280;26591;43.264;26.940;2022-08-19T09:03:24;98592.19;;;34.03;37.62
40872;BME280;26591;43.264;26.940;2022-08-19T09:05:59;98583.88;;;34.33;37.34
40872;BME280;26591;43.264;26.940;2022-08-19T09:11:08;98592.00;;;33.78;37.89
40872;BME280;26591;43.264;26.940;2022-08-19T09:16:43;98585.31;;;33.67;38.52
40872;BME280;26591;43.264;26.940;2022-08-19T09:19:09;98590.50;;;33.59;38.74
40872;BME280;26591;43.264;26.940;2022-08-19T09:21:36;98586.38;;;32.97;39.37
40872;BME280;26591;43.264;26.940;2022-08-19T09:24:02;98573.56;;;33.18;39.48
40872;BME280;26591;43.264;26.940;2022-08-19T09:26:29;98581.56;;;33.41;39.08
40872;BME280;26591;43.264;26.940;2022-08-19T09:28:55;98580.56;;;33.76;38.08
40872;BME280;26591;43.264;26.940;2022-08-19T09:31:25;98576.75;;;33.68;38.77
40872;BME280;26591;43.264;26.940;2022-08-19T09:33:53;98580.00;;;33.91;37.78
40872;BME280;26591;43.264;26.940;2022-08-19T09:36:23;98587.13;;;33.84;37.57
40872;BME280;26591;43.264;26.940;2022-08-19T09:38:50;98576.47;;;34.33;37.64
40872;BME280;26591;43.264;26.940;2022-08-19T09:41:22;98581.75;;;34.60;36.48
40872;BME280;26591;43.264;26.940;2022-08-19T09:43:50;98580.47;;;34.36;37.27
40872;BME280;26591;43.264;26.940;2022-08-19T09:46:23;98578.88;;;33.92;37.62
40872;BME280;26591;43.264;26.940;2022-08-19T09:48:50;98573.09;;;34.28;37.08
40872;BME280;26591;43.264;26.940;2022-08-19T09:51:19;98575.00;;;34.57;36.23
40872;BME280;26591;43.264;26.940;2022-08-19T09:53:47;98569.44;;;34.78;35.98
40872;BME280;26591;43.264;26.940;2022-08-19T09:56:15;98568.91;;;34.09;36.77
40872;BME280;26591;43.264;26.940;2022-08-19T09:58:41;98570.91;;;34.21;35.37
40872;BME280;26591;43.264;26.940;2022-08-19T10:01:07;98563.63;;;34.04;37.04
40872;BME280;26591;43.264;26.940;2022-08-19T10:03:34;98567.91;;;34.14;36.04
40872;BME280;26591;43.264;26.940;2022-08-19T10:06:02;98572.84;;;34.75;35.15
40872;BME280;26591;43.264;26.940;2022-08-19T10:08:31;98571.66;;;34.51;35.71
40872;BME280;26591;43.264;26.940;2022-08-19T10:10:58;98561.44;;;34.52;35.21
40872;BME280;26591;43.264;26.940;2022-08-19T10:13:26;98567.22;;;34.38;35.86
40872;BME280;26591;43.264;26.940;2022-08-19T10:15:54;98565.81;;;34.53;35.14
40872;BME280;26591;43.264;26.940;2022-08-19T10:18:22;98567.59;;;35.16;34.62
40872;BME280;26591;43.264;26.940;2022-08-19T10:20:50;98568.88;;;34.85;34.94
40872;BME280;26591;43.264;26.940;2022-08-19T10:23:17;98567.03;;;34.77;35.18
40872;BME280;26591;43.264;26.940;2022-08-19T10:25:42;98573.69;;;34.76;35.45
40872;BME280;26591;43.264;26.940;2022-08-19T10:28:09;98567.59;;;35.16;34.78
40872;BME280;26591;43.264;26.940;2022-08-19T10:30:38;98567.28;;;35.55;33.84
40872;BME280;26591;43.264;26.940;2022-08-19T10:33:05;98568.78;;;35.65;34.03
40872;BME280;26591;43.264;26.940;2022-08-19T10:35:31;98568.50;;;35.70;34.24
40872;BME280;26591;43.264;26.940;2022-08-19T10:37:57;98572.94;;;36.12;33.86
40872;BME280;26591;43.264;26.940;2022-08-19T10:40:26;98569.22;;;35.79;33.80
40872;BME280;26591;43.264;26.940;2022-08-19T10:42:53;98572.06;;;35.33;33.95
40872;BME280;26591;43.264;26.940;2022-08-19T10:45:19;98568.97;;;35.35;34.21
40872;BME280;26591;43.264;26.940;2022-08-19T10:47:47;98567.50;;;35.62;33.47
40872;BME280;26591;43.264;26.940;2022-08-19T10:50:13;98566.78;;;35.78;33.24
40872;BME280;26591;43.264;26.940;2022-08-19T10:52:57;98572.69;;;35.51;33.70
40872;BME280;26591;43.264;26.940;2022-08-19T10:55:23;98569.56;;;35.53;33.40
40872;BME280;26591;43.264;26.940;2022-08-19T10:58:16;98563.69;;;35.67;33.71
40872;BME280;26591;43.264;26.940;2022-08-19T11:00:43;98565.81;;;36.11;33.38
40872;BME280;26591;43.264;26.940;2022-08-19T11:03:15;98562.75;;;35.38;33.04
40872;BME280;26591;43.264;26.940;2022-08-19T11:05:41;98565.06;;;35.11;33.50
40872;BME280;26591;43.264;26.940;2022-08-19T11:08:08;98570.00;;;35.67;33.10
40872;BME280;26591;43.264;26.940;2022-08-19T11:10:36;98569.50;;;36.15;32.02
40872;BME280;26591;43.264;26.940;2022-08-19T11:13:02;98566.31;;;36.00;32.52
40872;BME280;26591;43.264;26.940;2022-08-19T11:15:28;98559.53;;;36.10;32.32
40872;BME280;26591;43.264;26.940;2022-08-19T11:17:54;98562.66;;;35.96;32.78
40872;BME280;26591;43.264;26.940;2022-08-19T11:20:21;98565.19;;;35.64;32.59
40872;BME280;26591;43.264;26.940;2022-08-19T11:22:51;98545.59;;;35.28;32.56
40872;BME280;26591;43.264;26.940;2022-08-19T11:25:19;98552.00;;;34.74;33.99
40872;BME280;26591;43.264;26.940;2022-08-19T11:27:45;98550.16;;;35.24;33.70
40872;BME280;26591;43.264;26.940;2022-08-19T11:30:13;98550.91;;;35.46;33.42
40872;BME280;26591;43.264;26.940;2022-08-19T11:32:42;98552.16;;;35.49;32.95
40872;BME280;26591;43.264;26.940;2022-08-19T11:35:07;98545.47;;;35.37;32.46
40872;BME280;26591;43.264;26.940;2022-08-19T11:37:33;98542.94;;;35.32;33.14
40872;BME280;26591;43.264;26.940;2022-08-19T11:40:03;98546.75;;;35.65;32.52
40872;BME280;26591;43.264;26.940;2022-08-19T11:42:29;98547.31;;;35.70;32.86
40872;BME280;26591;43.264;26.940;2022-08-19T11:45:14;98540.66;;;35.34;33.11
40872;BME280;26591;43.264;26.940;2022-08-19T11:47:39;98540.69;;;34.76;33.55
40872;BME280;26591;43.264;26.940;2022-08-19T11:50:05;98530.94;;;34.66;33.75
40872;BME280;26591;43.264;26.940;2022-08-19T11:52:31;98536.75;;;35.10;33.46
40872;BME280;26591;43.264;26.940;2022-08-19T11:54:56;98537.22;;;35.37;32.74
40872;BME280;26591;43.264;26.940;2022-08-19T11:57:22;98532.41;;;35.09;33.29
40872;BME280;26591;43.264;26.940;2022-08-19T11:59:52;98530.00;;;35.57;33.16
40872;BME280;26591;43.264;26.940;2022-08-19T12:02:18;98527.94;;;35.54;32.71
40872;BME280;26591;43.264;26.940;2022-08-19T12:04:44;98530.22;;;35.27;33.49
40872;BME280;26591;43.264;26.940;2022-08-19T12:07:10;98527.94;;;35.05;33.64
40872;BME280;26591;43.264;26.940;2022-08-19T12:09:35;98527.47;;;35.03;33.72
40872;BME280;26591;43.264;26.940;2022-08-19T12:12:01;98520.50;;;35.05;33.08
40872;BME280;26591;43.264;26.940;2022-08-19T12:14:28;98524.28;;;35.13;33.44
40872;BME280;26591;43.264;26.940;2022-08-19T12:16:56;98532.53;;;35.13;33.45
40872;BME280;26591;43.264;26.940;2022-08-19T12:19:21;98523.13;;;34.34;33.71
40872;BME280;26591;43.264;26.940;2022-08-19T12:21:47;98513.41;;;34.03;34.22
40872;BME280;26591;43.264;26.940;2022-08-19T12:24:13;98509.78;;;34.12;33.83
40872;BME280;26591;43.264;26.940;2022-08-19T12:26:39;98514.66;;;34.61;33.28
40872;BME280;26591;43.264;26.940;2022-08-19T12:29:04;98505.66;;;34.73;33.13
40872;BME280;26591;43.264;26.940;2022-08-19T12:31:30;98502.78;;;34.35;33.34
40872;BME280;26591;43.264;26.940;2022-08-19T12:33:55;98508.03;;;34.28;33.97
40872;BME280;26591;43.264;26.940;2022-08-19T12:36:22;98500.41;;;34.13;33.81
40872;BME280;26591;43.264;26.940;2022-08-19T12:38:48;98496.44;;;34.22;33.24
40872;BME280;26591;43.264;26.940;2022-08-19T12:41:15;98500.69;;;34.53;32.53
40872;BME280;26591;43.264;26.940;2022-08-19T12:43:43;98506.28;;;35.03;32.64
40872;BME280;26591;43.264;26.940;2022-08-19T12:46:09;98500.78;;;35.40;32.01
40872;BME280;26591;43.264;26.940;2022-08-19T12:48:36;98506.72;;;35.67;31.47
40872;BME280;26591;43.264;26.940;2022-08-19T12:51:07;98506.22;;;35.78;31.17
40872;BME280;26591;43.264;26.940;2022-08-19T12:53:33;98498.50;;;35.96;30.72
40872;BME280;26591;43.264;26.940;2022-08-19T12:55:58;98508.84;;;35.86;30.91
40872;BME280;26591;43.264;26.940;2022-08-19T12:58:26;98508.47;;;35.35;31.38
40872;BME280;26591;43.264;26.940;2022-08-19T13:00:52;98507.91;;;35.29;31.48
40872;BME280;26591;43.264;26.940;2022-08-19T13:03:17;98511.44;;;35.29;31.64
40872;BME280;26591;43.264;26.940;2022-08-19T13:05:43;98509.59;;;34.96;31.72